EWG7PR EDDS-LOWW
Flight info
| Callsign | EWG7PR |
|---|---|
| Flight time | 1h 3m |
| Altitude | 31000 |
| Route | ABTAL4H ABTAL L173 RIXED Y161 RIDAR Z98 MIQ L605 BIBAG Q104 AKIMA DCT MASUR MASUR3W |
| Aircraft | A320/M-SDE3FGHIRWY/LB1 |
Departure
| Time | 2026-05-04 15:49 |
|---|---|
| Airport | Stuttgart Airport (EDDS) |
Arrival
| Time | 2026-05-04 16:52 |
|---|---|
| Airport | Vienna International Airport (LOWW) |
| Time | Latitude | Longitude | Altitude | Speed | Heading |
|---|---|---|---|---|---|
| 2026-05-04 15:23 | 48.68928 | 9.19653 | 1289 ft | 0 kts | 343° |
| 2026-05-04 15:40 | 48.68908 | 9.19662 | 1290 ft | 4 kts | 349° |
| 2026-05-04 15:41 | 48.68882 | 9.19665 | 1289 ft | 4 kts | 8° |
| 2026-05-04 15:41 | 48.68859 | 9.19653 | 1291 ft | 4 kts | 55° |
| 2026-05-04 15:41 | 48.68855 | 9.19642 | 1291 ft | 0 kts | 73° |
| 2026-05-04 15:44 | 48.68866 | 9.19701 | 1285 ft | 11 kts | 74° |
| 2026-05-04 15:44 | 48.68885 | 9.19803 | 1285 ft | 9 kts | 74° |
| 2026-05-04 15:45 | 48.68868 | 9.19873 | 1287 ft | 7 kts | 151° |
| 2026-05-04 15:45 | 48.68823 | 9.19907 | 1288 ft | 11 kts | 142° |
| 2026-05-04 15:45 | 48.68746 | 9.19960 | 1288 ft | 12 kts | 164° |
| 2026-05-04 15:45 | 48.68695 | 9.19981 | 1288 ft | 5 kts | 164° |
| 2026-05-04 15:46 | 48.68674 | 9.19990 | 1288 ft | 0 kts | 164° |
| 2026-05-04 15:46 | 48.68653 | 9.19999 | 1287 ft | 11 kts | 164° |
| 2026-05-04 15:46 | 48.68582 | 9.20054 | 1285 ft | 8 kts | 95° |
| 2026-05-04 15:47 | 48.68590 | 9.20088 | 1289 ft | 0 kts | 74° |
| 2026-05-04 15:48 | 48.68593 | 9.20104 | 1287 ft | 8 kts | 75° |
| 2026-05-04 15:48 | 48.68678 | 9.20557 | 1287 ft | 81 kts | 74° |
| 2026-05-04 15:48 | 48.69206 | 9.23317 | 1443 ft | 171 kts | 69° |
| 2026-05-04 15:49 | 48.69521 | 9.25042 | 2191 ft | 170 kts | 71° |
| 2026-05-04 15:49 | 48.69841 | 9.26809 | 2744 ft | 183 kts | 71° |
| 2026-05-04 15:49 | 48.70203 | 9.28759 | 3113 ft | 202 kts | 71° |
| 2026-05-04 15:49 | 48.70618 | 9.30909 | 3405 ft | 223 kts | 71° |
| 2026-05-04 15:50 | 48.71088 | 9.33272 | 3821 ft | 245 kts | 70° |
| 2026-05-04 15:50 | 48.71592 | 9.35841 | 4433 ft | 261 kts | 72° |
| 2026-05-04 15:50 | 48.72102 | 9.38530 | 4863 ft | 268 kts | 73° |
| 2026-05-04 15:50 | 48.72611 | 9.41243 | 4977 ft | 268 kts | 72° |
| 2026-05-04 15:51 | 48.73120 | 9.43962 | 5002 ft | 268 kts | 73° |
| 2026-05-04 15:51 | 48.73629 | 9.46679 | 5007 ft | 268 kts | 73° |
| 2026-05-04 15:51 | 48.74141 | 9.49413 | 5298 ft | 272 kts | 74° |
| 2026-05-04 15:51 | 48.74660 | 9.52185 | 6205 ft | 275 kts | 77° |
| 2026-05-04 15:52 | 48.75187 | 9.55001 | 6988 ft | 281 kts | 76° |
| 2026-05-04 15:52 | 48.75724 | 9.57873 | 7784 ft | 286 kts | 76° |
| 2026-05-04 15:52 | 48.76269 | 9.60790 | 8594 ft | 291 kts | 77° |
| 2026-05-04 15:52 | 48.76816 | 9.63769 | 9405 ft | 295 kts | 80° |
| 2026-05-04 15:53 | 48.76960 | 9.66846 | 10138 ft | 296 kts | 96° |
| 2026-05-04 15:53 | 48.76853 | 9.70088 | 10420 ft | 318 kts | 96° |
| 2026-05-04 15:53 | 48.76722 | 9.73483 | 10987 ft | 327 kts | 96° |
| 2026-05-04 15:53 | 48.76583 | 9.76957 | 11674 ft | 333 kts | 96° |
| 2026-05-04 15:54 | 48.76445 | 9.80481 | 12373 ft | 338 kts | 96° |
| 2026-05-04 15:54 | 48.76306 | 9.84062 | 13084 ft | 343 kts | 96° |
| 2026-05-04 15:54 | 48.76168 | 9.87643 | 13724 ft | 348 kts | 95° |
| 2026-05-04 15:54 | 48.76025 | 9.91326 | 13928 ft | 351 kts | 95° |
| 2026-05-04 15:55 | 48.75883 | 9.95014 | 13983 ft | 351 kts | 95° |
| 2026-05-04 15:55 | 48.75740 | 9.98707 | 13990 ft | 351 kts | 95° |
| 2026-05-04 15:55 | 48.75596 | 10.02394 | 13992 ft | 351 kts | 95° |
| 2026-05-04 15:55 | 48.75448 | 10.06078 | 13991 ft | 351 kts | 96° |
| 2026-05-04 15:56 | 48.75297 | 10.09760 | 13984 ft | 350 kts | 96° |
| 2026-05-04 15:56 | 48.75147 | 10.13437 | 13987 ft | 349 kts | 96° |
| 2026-05-04 15:56 | 48.74995 | 10.17103 | 13987 ft | 349 kts | 96° |
| 2026-05-04 15:56 | 48.74842 | 10.20773 | 13989 ft | 349 kts | 96° |
| 2026-05-04 15:57 | 48.74688 | 10.24442 | 13992 ft | 349 kts | 96° |
| 2026-05-04 15:57 | 48.74535 | 10.28105 | 13991 ft | 348 kts | 96° |
| 2026-05-04 15:57 | 48.74383 | 10.31767 | 13991 ft | 348 kts | 96° |
| 2026-05-04 15:57 | 48.74227 | 10.35436 | 13988 ft | 348 kts | 96° |
| 2026-05-04 15:58 | 48.74070 | 10.39095 | 13987 ft | 348 kts | 96° |
| 2026-05-04 15:58 | 48.73907 | 10.42764 | 14117 ft | 351 kts | 96° |
| 2026-05-04 15:58 | 48.73741 | 10.46465 | 14806 ft | 353 kts | 96° |
| 2026-05-04 15:58 | 48.73574 | 10.50197 | 15450 ft | 357 kts | 96° |
| 2026-05-04 15:59 | 48.73243 | 10.53920 | 16094 ft | 357 kts | 107° |
| 2026-05-04 15:59 | 48.72421 | 10.57460 | 16705 ft | 357 kts | 119° |
| 2026-05-04 15:59 | 48.71127 | 10.60667 | 17294 ft | 358 kts | 131° |
| 2026-05-04 15:59 | 48.69458 | 10.63461 | 17878 ft | 360 kts | 137° |
| 2026-05-04 16:00 | 48.68305 | 10.65276 | 18269 ft | 363 kts | 137° |
| 2026-05-04 16:00 | 48.66552 | 10.68043 | 18778 ft | 366 kts | 137° |
| 2026-05-04 16:00 | 48.64780 | 10.70841 | 19304 ft | 370 kts | 137° |
| 2026-05-04 16:00 | 48.62998 | 10.73666 | 19832 ft | 373 kts | 137° |
| 2026-05-04 16:01 | 48.61257 | 10.76598 | 20356 ft | 378 kts | 130° |
| 2026-05-04 16:01 | 48.59876 | 10.80016 | 20878 ft | 386 kts | 118° |
| 2026-05-04 16:01 | 48.58977 | 10.83871 | 21371 ft | 393 kts | 105° |
| 2026-05-04 16:01 | 48.58628 | 10.87969 | 21884 ft | 400 kts | 94° |
| 2026-05-04 16:02 | 48.58525 | 10.92183 | 22390 ft | 403 kts | 94° |
| 2026-05-04 16:02 | 48.58416 | 10.96431 | 22898 ft | 406 kts | 94° |
| 2026-05-04 16:02 | 48.58176 | 11.05036 | 23842 ft | 413 kts | 94° |
| 2026-05-04 16:03 | 48.58048 | 11.09377 | 24271 ft | 416 kts | 95° |
| 2026-05-04 16:03 | 48.57918 | 11.13756 | 24710 ft | 418 kts | 94° |
| 2026-05-04 16:03 | 48.57812 | 11.18162 | 25135 ft | 421 kts | 94° |
| 2026-05-04 16:03 | 48.57730 | 11.22592 | 25555 ft | 423 kts | 93° |
| 2026-05-04 16:04 | 48.57656 | 11.27044 | 25985 ft | 425 kts | 93° |
| 2026-05-04 16:04 | 48.57511 | 11.36014 | 26776 ft | 430 kts | 93° |
| 2026-05-04 16:04 | 48.57432 | 11.40537 | 27151 ft | 432 kts | 93° |
| 2026-05-04 16:05 | 48.57345 | 11.45087 | 27537 ft | 434 kts | 94° |
| 2026-05-04 16:05 | 48.57251 | 11.49649 | 27912 ft | 437 kts | 94° |
| 2026-05-04 16:05 | 48.57011 | 11.58854 | 28660 ft | 440 kts | 98° |
| 2026-05-04 16:06 | 48.56505 | 11.63385 | 29008 ft | 440 kts | 105° |
| 2026-05-04 16:06 | 48.54726 | 11.75516 | 29929 ft | 445 kts | 105° |
| 2026-05-04 16:07 | 48.53837 | 11.81580 | 30285 ft | 448 kts | 105° |
| 2026-05-04 16:07 | 48.51799 | 11.95420 | 30933 ft | 449 kts | 105° |
| 2026-05-04 16:08 | 48.51133 | 11.99936 | 30945 ft | 433 kts | 105° |
| 2026-05-04 16:08 | 48.49234 | 12.12694 | 30943 ft | 408 kts | 105° |
| 2026-05-04 16:09 | 48.47977 | 12.21024 | 30933 ft | 408 kts | 105° |
| 2026-05-04 16:10 | 48.45388 | 12.38036 | 30925 ft | 435 kts | 105° |
| 2026-05-04 16:11 | 48.43316 | 12.51615 | 30917 ft | 447 kts | 105° |
| 2026-05-04 16:11 | 48.42622 | 12.56172 | 30917 ft | 447 kts | 105° |
| 2026-05-04 16:12 | 48.39971 | 12.83838 | 30914 ft | 451 kts | 89° |
| 2026-05-04 16:13 | 48.40544 | 13.02686 | 30906 ft | 451 kts | 88° |
| 2026-05-04 16:14 | 48.41052 | 13.21480 | 30910 ft | 450 kts | 89° |
| 2026-05-04 16:16 | 48.42026 | 13.44957 | 30912 ft | 450 kts | 85° |
| 2026-05-04 16:17 | 48.43500 | 13.68290 | 30909 ft | 448 kts | 86° |
| 2026-05-04 16:18 | 48.44509 | 13.87011 | 30917 ft | 448 kts | 86° |
| 2026-05-04 16:19 | 48.45771 | 14.10492 | 30905 ft | 452 kts | 85° |
| 2026-05-04 16:20 | 48.46991 | 14.34179 | 29182 ft | 453 kts | 85° |
| 2026-05-04 16:21 | 48.47659 | 14.47596 | 28891 ft | 407 kts | 85° |
| 2026-05-04 16:22 | 48.48065 | 14.55829 | 28724 ft | 381 kts | 85° |
| 2026-05-04 16:22 | 48.48622 | 14.67348 | 28480 ft | 361 kts | 86° |
| 2026-05-04 16:23 | 48.49153 | 14.78629 | 28238 ft | 358 kts | 86° |
| 2026-05-04 16:24 | 48.49840 | 14.93526 | 27919 ft | 354 kts | 86° |
| 2026-05-04 16:25 | 48.50171 | 15.00933 | 27757 ft | 353 kts | 86° |
| 2026-05-04 16:26 | 48.50819 | 15.15681 | 27439 ft | 352 kts | 86° |
| 2026-05-04 16:26 | 48.51291 | 15.26666 | 27219 ft | 349 kts | 86° |
| 2026-05-04 16:27 | 48.51603 | 15.34039 | 26133 ft | 357 kts | 86° |
| 2026-05-04 16:28 | 48.51996 | 15.45466 | 23343 ft | 368 kts | 96° |
| 2026-05-04 16:28 | 48.48081 | 15.54809 | 20282 ft | 363 kts | 154° |
| 2026-05-04 16:29 | 48.39001 | 15.52995 | 17048 ft | 333 kts | 226° |
| 2026-05-04 16:30 | 48.36527 | 15.44659 | 16939 ft | 269 kts | 262° |
| 2026-05-04 16:31 | 48.36422 | 15.39087 | 16949 ft | 269 kts | 279° |
| 2026-05-04 16:31 | 48.39336 | 15.31971 | 16935 ft | 276 kts | 320° |
| 2026-05-04 16:32 | 48.44764 | 15.29430 | 16942 ft | 285 kts | 3° |
| 2026-05-04 16:33 | 48.48494 | 15.31410 | 16942 ft | 289 kts | 35° |
| 2026-05-04 16:33 | 48.51093 | 15.35965 | 16947 ft | 290 kts | 66° |
| 2026-05-04 16:34 | 48.52007 | 15.41788 | 16934 ft | 287 kts | 85° |
| 2026-05-04 16:34 | 48.52119 | 15.44807 | 16785 ft | 288 kts | 93° |
| 2026-05-04 16:35 | 48.51580 | 15.53760 | 16280 ft | 285 kts | 98° |
| 2026-05-04 16:35 | 48.50974 | 15.62633 | 15691 ft | 282 kts | 97° |
| 2026-05-04 16:36 | 48.50798 | 15.65579 | 15494 ft | 282 kts | 97° |
| 2026-05-04 16:36 | 48.50457 | 15.71447 | 15098 ft | 280 kts | 97° |
| 2026-05-04 16:37 | 48.50117 | 15.77262 | 14704 ft | 278 kts | 97° |
| 2026-05-04 16:37 | 48.49945 | 15.80167 | 14512 ft | 277 kts | 98° |
| 2026-05-04 16:37 | 48.49603 | 15.85935 | 14124 ft | 275 kts | 98° |
| 2026-05-04 16:38 | 48.48963 | 15.91574 | 13711 ft | 273 kts | 95° |
| 2026-05-04 16:39 | 48.49249 | 16.00214 | 12665 ft | 273 kts | 88° |
| 2026-05-04 16:39 | 48.49467 | 16.06041 | 11665 ft | 285 kts | 90° |
| 2026-05-04 16:40 | 48.49584 | 16.12143 | 10682 ft | 297 kts | 91° |
| 2026-05-04 16:40 | 48.49659 | 16.18493 | 9608 ft | 309 kts | 91° |
| 2026-05-04 16:41 | 48.49728 | 16.24983 | 8463 ft | 304 kts | 90° |
| 2026-05-04 16:41 | 48.50782 | 16.33994 | 6854 ft | 284 kts | 76° |
| 2026-05-04 16:42 | 48.49497 | 16.41488 | 5225 ft | 245 kts | 146° |
| 2026-05-04 16:43 | 48.46540 | 16.43122 | 5007 ft | 212 kts | 167° |
| 2026-05-04 16:43 | 48.43729 | 16.44286 | 5018 ft | 213 kts | 165° |
| 2026-05-04 16:43 | 48.42301 | 16.44897 | 5023 ft | 213 kts | 165° |
| 2026-05-04 16:44 | 48.37373 | 16.47009 | 5028 ft | 174 kts | 166° |
| 2026-05-04 16:45 | 48.35234 | 16.47924 | 5043 ft | 162 kts | 166° |
| 2026-05-04 16:46 | 48.32123 | 16.49252 | 4589 ft | 145 kts | 166° |
| 2026-05-04 16:46 | 48.30238 | 16.50056 | 4219 ft | 138 kts | 166° |
| 2026-05-04 16:47 | 48.28402 | 16.50839 | 3875 ft | 136 kts | 166° |
| 2026-05-04 16:47 | 48.26584 | 16.51613 | 3507 ft | 135 kts | 166° |
| 2026-05-04 16:48 | 48.23889 | 16.52760 | 2985 ft | 134 kts | 166° |
| 2026-05-04 16:48 | 48.22994 | 16.53141 | 2804 ft | 133 kts | 166° |
| 2026-05-04 16:49 | 48.21221 | 16.53895 | 2457 ft | 132 kts | 166° |
| 2026-05-04 16:49 | 48.19455 | 16.54645 | 2112 ft | 132 kts | 166° |
| 2026-05-04 16:50 | 48.17692 | 16.55393 | 1766 ft | 131 kts | 166° |
| 2026-05-04 16:50 | 48.15930 | 16.56140 | 1425 ft | 131 kts | 166° |
| 2026-05-04 16:51 | 48.14171 | 16.56886 | 1071 ft | 131 kts | 166° |
| 2026-05-04 16:51 | 48.13292 | 16.57262 | 870 ft | 130 kts | 163° |
| 2026-05-04 16:51 | 48.11557 | 16.57998 | 617 ft | 122 kts | 162° |
| 2026-05-04 16:52 | 48.10723 | 16.58285 | 608 ft | 24 kts | 191° |
| 2026-05-04 16:52 | 48.10582 | 16.58233 | 608 ft | 17 kts | 196° |
| 2026-05-04 16:53 | 48.10652 | 16.58100 | 608 ft | 11 kts | 344° |
| 2026-05-04 16:53 | 48.10891 | 16.57999 | 613 ft | 19 kts | 344° |
| 2026-05-04 16:54 | 48.10987 | 16.57887 | 615 ft | 17 kts | 314° |
| 2026-05-04 16:55 | 48.11420 | 16.57636 | 617 ft | 16 kts | 345° |
| 2026-05-04 16:55 | 48.11649 | 16.57539 | 613 ft | 16 kts | 344° |
| 2026-05-04 16:56 | 48.11810 | 16.57412 | 608 ft | 12 kts | 265° |
| 2026-05-04 16:56 | 48.11866 | 16.57109 | 619 ft | 9 kts | 296° |
| 2026-05-04 16:57 | 48.11854 | 16.57073 | 616 ft | 4 kts | 205° |
| 2026-05-04 16:57 | 48.11803 | 16.57035 | 608 ft | 0 kts | 206° |